Time;durP1;ratioP1;P1;durP2;ratioP2;P2;SDS_P1;SDS_P2;PMS_P1;PMS_P2;Temp;Humidity;BMP_temperature;BMP_pressure;BME280_temperature;BME280_humidity;BME280_pressure;Samples;Min_cycle;Max_cycle;Signal;HPM_P1;HPM_P2
2023/02/27 00:01:21;;;;;;;1999.90;999.90;;;1.40;99.90;;;;;;5032103;28;20176;-70
2023/02/27 00:03:47;;;;;;;1999.90;999.90;;;1.40;99.90;;;;;;5032078;28;20172;-70
2023/02/27 00:06:12;;;;;;;1999.90;999.90;;;1.40;99.90;;;;;;5032028;28;20218;-70
2023/02/27 00:08:38;;;;;;;1999.90;999.90;;;1.40;99.90;;;;;;5031151;28;20192;-70
2023/02/27 00:11:04;;;;;;;1999.90;999.90;;;1.30;99.90;;;;;;5031727;28;20230;-70
2023/02/27 00:13:29;;;;;;;1999.90;999.90;;;1.20;99.90;;;;;;5032055;28;20677;-70
2023/02/27 00:15:55;;;;;;;1999.90;999.90;;;1.20;99.90;;;;;;5031941;28;20172;-69
2023/02/27 00:18:21;;;;;;;1999.90;999.90;;;1.20;99.90;;;;;;5031868;28;20168;-70
2023/02/27 00:20:47;;;;;;;1999.90;999.90;;;1.20;99.90;;;;;;5031879;28;20192;-70
2023/02/27 00:23:14;;;;;;;1999.90;999.90;;;1.20;99.90;;;;;;5031837;28;20175;-69
2023/02/27 00:25:40;;;;;;;1999.90;999.90;;;1.20;99.90;;;;;;5032171;28;20812;-69
2023/02/27 00:28:06;;;;;;;1999.90;999.90;;;1.10;99.90;;;;;;5031777;28;20201;-69
2023/02/27 00:30:32;;;;;;;1999.90;999.90;;;1.10;99.90;;;;;;5031820;28;20423;-69
2023/02/27 00:32:58;;;;;;;1999.90;999.90;;;1.10;99.90;;;;;;5031696;28;20168;-70
2023/02/27 00:35:24;;;;;;;1999.90;999.90;;;1.10;99.90;;;;;;5031843;28;20179;-70
2023/02/27 00:37:50;;;;;;;1999.90;999.90;;;1.10;99.90;;;;;;5031663;28;20477;-70
2023/02/27 00:40:16;;;;;;;1999.90;999.90;;;1.10;99.90;;;;;;5031758;28;20192;-70
2023/02/27 00:42:42;;;;;;;1999.90;999.90;;;1.10;99.90;;;;;;5031625;28;20218;-69
2023/02/27 00:45:08;;;;;;;1999.90;999.90;;;1.10;99.90;;;;;;5031717;28;20252;-69
2023/02/27 00:47:34;;;;;;;1999.90;999.90;;;1.10;99.90;;;;;;5031794;28;20223;-69
2023/02/27 00:50:00;;;;;;;1999.90;999.90;;;1.10;99.90;;;;;;5031590;28;20215;-69
2023/02/27 00:52:26;;;;;;;1999.90;999.90;;;1.10;99.90;;;;;;5031498;28;20530;-69
2023/02/27 00:54:52;;;;;;;1999.90;999.90;;;1.10;99.90;;;;;;5031849;28;20173;-69
2023/02/27 00:57:18;;;;;;;1999.90;999.90;;;1.10;99.90;;;;;;5031506;28;20907;-69
2023/02/27 00:59:44;;;;;;;1999.90;999.90;;;1.10;99.90;;;;;;5031470;28;20517;-70
2023/02/27 01:02:09;;;;;;;1999.90;999.90;;;1.10;99.90;;;;;;5031320;28;20176;-69
2023/02/27 01:04:35;;;;;;;1999.90;999.90;;;1.10;99.90;;;;;;5031576;28;20410;-70
2023/02/27 01:07:01;;;;;;;1999.90;999.90;;;1.00;99.90;;;;;;5031467;28;20567;-70
2023/02/27 01:09:26;;;;;;;1999.90;999.90;;;1.00;99.90;;;;;;5031684;28;20846;-70
2023/02/27 01:11:52;;;;;;;1999.90;999.90;;;1.00;99.90;;;;;;5031174;28;20180;-70
2023/02/27 01:14:18;;;;;;;1999.90;999.90;;;1.10;99.90;;;;;;5031421;28;20169;-70
2023/02/27 01:16:43;;;;;;;1999.90;999.90;;;1.00;99.90;;;;;;5031225;28;20259;-70
2023/02/27 01:19:09;;;;;;;1999.90;999.90;;;1.10;99.90;;;;;;5031310;28;20200;-70
2023/02/27 01:21:35;;;;;;;1999.90;999.90;;;1.00;99.90;;;;;;5034320;28;20172;-70
2023/02/27 01:24:01;;;;;;;1999.90;999.90;;;1.00;99.90;;;;;;5034970;28;20164;-70
2023/02/27 01:26:26;;;;;;;1999.90;999.90;;;1.00;99.90;;;;;;5034803;28;20395;-70
2023/02/27 01:28:52;;;;;;;1999.90;999.90;;;1.00;99.90;;;;;;5034754;28;20207;-70
2023/02/27 01:31:17;;;;;;;1999.90;999.90;;;1.00;99.90;;;;;;5034641;28;20171;-70
2023/02/27 01:33:43;;;;;;;1999.90;999.90;;;1.00;99.90;;;;;;5034904;28;20172;-70
2023/02/27 01:36:09;;;;;;;1999.90;999.90;;;1.00;99.90;;;;;;5034652;28;20168;-70
2023/02/27 01:38:34;;;;;;;1999.90;999.90;;;1.00;99.90;;;;;;5034719;28;20200;-70
2023/02/27 01:41:00;;;;;;;1999.90;999.90;;;1.00;99.90;;;;;;5034494;28;20279;-70
2023/02/27 01:43:26;;;;;;;1999.90;999.90;;;1.00;99.90;;;;;;5034627;28;20175;-70
2023/02/27 01:45:52;;;;;;;1999.90;999.90;;;1.00;99.90;;;;;;5034600;28;20184;-70
2023/02/27 01:48:35;;;;;;;1999.90;999.90;;;1.00;99.90;;;;;;5034548;28;20477;-70
2023/02/27 01:51:15;;;;;;;1999.90;999.90;;;0.90;99.90;;;;;;5034206;28;20210;-70
2023/02/27 01:53:43;;;;;;;1999.90;999.90;;;0.90;99.90;;;;;;5034449;28;20192;-70
2023/02/27 01:56:17;;;;;;;1999.90;999.90;;;0.80;99.90;;;;;;5034260;28;20172;-70
2023/02/27 01:58:44;;;;;;;1999.90;999.90;;;0.70;99.90;;;;;;5034288;28;20646;-70
2023/02/27 02:01:09;;;;;;;1999.90;999.90;;;0.70;99.90;;;;;;5034130;28;20567;-70
2023/02/27 02:04:05;;;;;;;1999.90;999.90;;;0.70;99.90;;;;;;5034247;28;20255;-70
2023/02/27 02:06:36;;;;;;;1999.90;999.90;;;0.70;99.90;;;;;;5026080;28;20608;-70
2023/02/27 02:09:02;;;;;;;1999.90;999.90;;;0.50;99.90;;;;;;5035326;28;20208;-69
2023/02/27 02:11:28;;;;;;;1999.90;999.90;;;0.50;99.90;;;;;;5040199;28;20172;-70
2023/02/27 02:13:58;;;;;;;1999.90;999.90;;;0.50;99.90;;;;;;5039920;28;20197;-70
2023/02/27 02:16:49;;;;;;;1999.90;999.90;;;0.40;99.90;;;;;;5039904;28;20212;-70
2023/02/27 02:19:29;;;;;;;1999.90;999.90;;;0.50;99.90;;;;;;5039845;28;20200;-70
2023/02/27 02:22:15;;;;;;;1999.90;999.90;;;0.40;99.90;;;;;;5039895;28;20660;-69
2023/02/27 02:25:12;;;;;;;1999.90;999.90;;;0.40;99.90;;;;;;5039558;28;20180;-69
2023/02/27 02:27:51;;;;;;;1999.90;999.90;;;0.40;99.90;;;;;;5039394;28;20175;-70
2023/02/27 02:30:41;;;;;;;1999.90;999.90;;;0.30;99.90;;;;;;5039317;28;20192;-70
2023/02/27 02:33:26;;;;;;;1999.90;999.90;;;0.30;99.90;;;;;;5038199;28;20184;-70
2023/02/27 02:36:09;;;;;;;1999.90;999.90;;;0.30;99.90;;;;;;5039003;28;20172;-69
2023/02/27 02:39:09;;;;;;;1999.90;999.90;;;0.30;99.90;;;;;;5038986;28;20179;-70
2023/02/27 02:42:03;;;;;;;1999.90;999.90;;;0.30;99.90;;;;;;5038379;28;20165;-70
2023/02/27 02:45:02;;;;;;;1999.90;999.90;;;0.30;99.90;;;;;;5038940;28;20182;-70
2023/02/27 02:47:41;;;;;;;1999.90;999.90;;;0.30;99.90;;;;;;5039149;28;20648;-69
2023/02/27 02:50:20;;;;;;;1999.90;999.90;;;0.20;99.90;;;;;;5038602;28;20231;-69
2023/02/27 02:52:55;;;;;;;1999.90;999.90;;;0.20;99.90;;;;;;5038356;28;20175;-69
2023/02/27 02:55:28;;;;;;;1999.90;999.90;;;0.20;99.90;;;;;;5038689;28;20195;-70
2023/02/27 02:58:14;;;;;;;1999.90;999.90;;;0.20;99.90;;;;;;5038019;28;20234;-70
2023/02/27 03:00:51;;;;;;;1999.90;999.90;;;0.20;99.90;;;;;;5038439;28;20488;-70
2023/02/27 03:03:34;;;;;;;1999.90;999.90;;;0.20;99.90;;;;;;5037766;28;20202;-70
2023/02/27 03:06:14;;;;;;;1999.90;999.90;;;0.20;99.90;;;;;;5034658;28;20672;-70
2023/02/27 03:08:52;;;;;;;1999.90;999.90;;;0.10;99.90;;;;;;5032961;28;20215;-70
2023/02/27 03:11:18;;;;;;;1999.90;999.90;;;0.10;99.90;;;;;;5032925;28;20211;-70
2023/02/27 03:13:51;;;;;;;1999.90;999.90;;;0.10;99.90;;;;;;5032905;28;20633;-70
2023/02/27 03:16:27;;;;;;;1999.90;999.90;;;0.10;99.90;;;;;;5032882;28;20654;-70
2023/02/27 03:18:58;;;;;;;1999.90;999.90;;;0.10;99.90;;;;;;5032693;28;20202;-70
2023/02/27 03:21:47;;;;;;;1999.90;999.90;;;0.00;99.90;;;;;;5032618;28;20183;-70
2023/02/27 03:24:19;;;;;;;1999.90;999.90;;;0.00;99.90;;;;;;5032685;28;20169;-70
2023/02/27 03:26:49;;;;;;;1999.90;999.90;;;0.00;99.90;;;;;;5032625;28;20178;-70
2023/02/27 03:29:21;;;;;;;1999.90;999.90;;;0.00;99.90;;;;;;5032452;28;20254;-70
2023/02/27 03:31:59;;;;;;;1999.90;999.90;;;0.00;99.90;;;;;;5032442;28;20160;-70
2023/02/27 03:34:32;;;;;;;1999.90;999.90;;;0.00;99.90;;;;;;5032536;28;20264;-70
2023/02/27 03:37:09;;;;;;;1999.90;999.90;;;0.00;99.90;;;;;;5032459;28;20165;-70
2023/02/27 03:40:05;;;;;;;1999.90;999.90;;;0.00;99.90;;;;;;5032480;28;20194;-70
2023/02/27 03:42:43;;;;;;;1999.90;999.90;;;-0.10;99.90;;;;;;5032151;28;20177;-70
2023/02/27 03:45:25;;;;;;;1999.90;999.90;;;-0.10;99.90;;;;;;5032350;28;20176;-70
2023/02/27 03:47:51;;;;;;;1999.90;999.90;;;-0.10;99.90;;;;;;5032251;28;20172;-70
2023/02/27 03:50:17;;;;;;;1999.90;999.90;;;-0.10;99.90;;;;;;5032113;28;20603;-70
2023/02/27 03:52:43;;;;;;;1999.90;999.90;;;-0.10;99.90;;;;;;5032154;28;20430;-70
2023/02/27 03:55:16;;;;;;;1999.90;999.90;;;-0.20;99.90;;;;;;5032230;28;20228;-70
2023/02/27 03:57:43;;;;;;;1999.90;999.90;;;-0.20;99.90;;;;;;5031997;28;20179;-70
2023/02/27 04:00:14;;;;;;;1999.90;999.90;;;-0.20;99.90;;;;;;5032088;28;20576;-70
2023/02/27 04:02:42;;;;;;;1999.90;999.90;;;-0.20;99.90;;;;;;5031831;28;20630;-70
2023/02/27 04:05:08;;;;;;;1999.90;999.90;;;-0.20;99.90;;;;;;5032075;28;20184;-70
2023/02/27 04:07:55;;;;;;;1999.90;999.90;;;-0.30;99.90;;;;;;5035888;28;20171;-69
2023/02/27 04:10:20;;;;;;;1999.90;999.90;;;-0.30;99.90;;;;;;5036956;28;20206;-69
2023/02/27 04:13:11;;;;;;;1999.90;999.90;;;-0.30;99.90;;;;;;5036454;28;20162;-69
2023/02/27 04:16:01;;;;;;;1999.90;999.90;;;-0.40;99.90;;;;;;5036295;28;20169;-70
2023/02/27 04:18:50;;;;;;;1999.90;999.90;;;-0.40;99.90;;;;;;5034959;28;20164;-70
2023/02/27 04:21:28;;;;;;;1999.90;999.90;;;-0.40;99.90;;;;;;5031762;28;20694;-70
2023/02/27 04:24:09;;;;;;;1999.90;999.90;;;-0.40;99.90;;;;;;5031928;28;20175;-70
2023/02/27 04:26:47;;;;;;;1999.90;999.90;;;-0.50;99.90;;;;;;5031735;28;20176;-70
2023/02/27 04:30:04;;;;;;;1999.90;999.90;;;-0.50;99.90;;;;;;5031737;28;20286;-70
2023/02/27 04:32:37;;;;;;;1999.90;999.90;;;-0.50;99.90;;;;;;4987583;28;20195;-70
2023/02/27 04:35:12;;;;;;;1999.90;999.90;;;-0.50;99.90;;;;;;5031856;28;20579;-70
2023/02/27 04:37:47;;;;;;;1999.90;999.90;;;-0.60;99.90;;;;;;5031729;28;20247;-70
2023/02/27 04:40:19;;;;;;;1999.90;999.90;;;-0.60;99.90;;;;;;5035408;28;20741;-70
2023/02/27 04:42:49;;;;;;;1999.90;999.90;;;-0.60;99.90;;;;;;5051422;28;20179;-70
2023/02/27 04:45:19;;;;;;;1999.90;999.90;;;-0.70;99.90;;;;;;5051753;28;20206;-70
2023/02/27 04:47:53;;;;;;;1999.90;999.90;;;-0.70;99.90;;;;;;5051694;28;20752;-70
2023/02/27 04:50:28;;;;;;;1999.90;999.90;;;-0.70;99.90;;;;;;5051496;28;20564;-70
2023/02/27 04:53:02;;;;;;;1999.90;999.90;;;-0.70;99.90;;;;;;5051367;28;20159;-70
2023/02/27 04:55:34;;;;;;;1999.90;999.90;;;-0.70;99.90;;;;;;5053219;28;20195;-70
2023/02/27 04:58:05;;;;;;;1999.90;999.90;;;-0.70;99.90;;;;;;5055487;28;20187;-70
2023/02/27 05:00:33;;;;;;;1999.90;999.90;;;-0.70;99.90;;;;;;5055261;28;20191;-70
2023/02/27 05:03:11;;;;;;;1999.90;999.90;;;-0.80;99.90;;;;;;5055203;28;20723;-70
2023/02/27 05:05:38;;;;;;;1999.90;999.90;;;-0.80;99.90;;;;;;5055250;28;20728;-70
2023/02/27 05:08:35;;;;;;;1999.90;999.90;;;-0.80;99.90;;;;;;5055370;28;20669;-70
2023/02/27 05:11:10;;;;;;;1999.90;999.90;;;-0.80;99.90;;;;;;5054787;28;20211;-70
2023/02/27 05:13:42;;;;;;;1999.90;999.90;;;-0.80;99.90;;;;;;5055100;28;20174;-70
2023/02/27 05:16:28;;;;;;;1999.90;999.90;;;-0.90;99.90;;;;;;5055076;28;20637;-70
2023/02/27 05:18:55;;;;;;;1999.90;999.90;;;-0.80;99.90;;;;;;5054964;28;20225;-70
2023/02/27 05:21:35;;;;;;;1999.90;999.90;;;-0.80;99.90;;;;;;5054778;28;20317;-70
2023/02/27 05:24:18;;;;;;;1999.90;999.90;;;-0.80;99.90;;;;;;5055125;28;20174;-69
2023/02/27 05:27:11;;;;;;;1999.90;999.90;;;-0.80;99.90;;;;;;5054846;28;20167;-69
2023/02/27 05:29:49;;;;;;;1999.90;999.90;;;-0.80;99.90;;;;;;5054670;28;20250;-69
2023/02/27 05:32:32;;;;;;;1999.90;999.90;;;-0.90;99.90;;;;;;5054727;28;20594;-69
2023/02/27 05:35:21;;;;;;;1999.90;999.90;;;-0.80;99.90;;;;;;5054916;28;20556;-69
2023/02/27 05:38:01;;;;;;;1999.90;999.90;;;-0.80;99.90;;;;;;5054654;28;20172;-69
2023/02/27 05:40:41;;;;;;;1999.90;999.90;;;-0.80;99.90;;;;;;5054532;28;20187;-69
2023/02/27 05:43:15;;;;;;;1999.90;999.90;;;-0.90;99.90;;;;;;5055218;28;20148;-70
2023/02/27 05:45:44;;;;;;;1999.90;999.90;;;-0.90;99.90;;;;;;5059213;28;20182;-70
2023/02/27 05:48:21;;;;;;;1999.90;999.90;;;-0.90;99.90;;;;;;5059059;28;20278;-70
2023/02/27 05:50:49;;;;;;;1999.90;999.90;;;-0.90;99.90;;;;;;5059028;28;20191;-69
2023/02/27 05:53:19;;;;;;;1999.90;999.90;;;-0.90;99.90;;;;;;5059925;28;20589;-69
2023/02/27 05:55:49;;;;;;;1999.90;999.90;;;-0.90;99.90;;;;;;5060347;28;20237;-70
2023/02/27 05:58:42;;;;;;;1999.90;999.90;;;-1.00;99.90;;;;;;5059875;28;20175;-69
2023/02/27 06:01:10;;;;;;;1999.90;999.90;;;-1.00;99.90;;;;;;5058627;28;20168;-70
2023/02/27 06:03:37;;;;;;;1999.90;999.90;;;-1.00;99.90;;;;;;5058540;28;20230;-69
2023/02/27 06:06:17;;;;;;;1999.90;999.90;;;-0.90;99.90;;;;;;5057691;28;20177;-69
2023/02/27 06:08:44;;;;;;;1999.90;999.90;;;-1.00;99.90;;;;;;5039441;28;20207;-69
2023/02/27 06:11:10;;;;;;;1999.90;999.90;;;-1.00;99.90;;;;;;5057642;28;20168;-69
2023/02/27 06:13:35;;;;;;;1999.90;999.90;;;-1.00;99.90;;;;;;5057114;28;20250;-69
2023/02/27 06:16:01;;;;;;;1999.90;999.90;;;-1.00;99.90;;;;;;5057732;28;20192;-69
2023/02/27 06:18:27;;;;;;;1999.90;999.90;;;-1.00;99.90;;;;;;5057606;28;20163;-69
2023/02/27 06:20:52;;;;;;;1999.90;999.90;;;-1.00;99.90;;;;;;5057555;28;20414;-69
2023/02/27 06:23:18;;;;;;;1999.90;999.90;;;-1.00;99.90;;;;;;5057431;28;20531;-69
2023/02/27 06:25:44;;;;;;;1999.90;999.90;;;-1.00;99.90;;;;;;5056977;28;20264;-70
2023/02/27 06:28:10;;;;;;;1999.90;999.90;;;-1.00;99.90;;;;;;5056903;28;20457;-69
2023/02/27 06:30:36;;;;;;;1999.90;999.90;;;-1.10;99.90;;;;;;5056635;28;20430;-69
2023/02/27 06:33:02;;;;;;;1999.90;999.90;;;-1.00;99.90;;;;;;5056742;28;20720;-69
2023/02/27 06:35:28;;;;;;;1999.90;999.90;;;-1.00;99.90;;;;;;5056421;28;20176;-69
2023/02/27 06:37:57;;;;;;;1999.90;999.90;;;-1.00;99.90;;;;;;5056256;28;20194;-69
2023/02/27 06:40:23;;;;;;;1999.90;999.90;;;-0.90;99.90;;;;;;5056054;28;20203;-70
2023/02/27 06:42:49;;;;;;;1999.90;999.90;;;-0.90;99.90;;;;;;5055834;28;20159;-70
2023/02/27 06:45:15;;;;;;;1999.90;999.90;;;-0.90;99.90;;;;;;5055801;28;20759;-69
2023/02/27 06:47:41;;;;;;;1999.90;999.90;;;-0.80;99.90;;;;;;5055908;28;20163;-70
2023/02/27 06:50:10;;;;;;;1999.90;999.90;;;-0.90;99.90;;;;;;5056161;28;20200;-70
2023/02/27 06:52:36;;;;;;;1999.90;999.90;;;-0.90;99.90;;;;;;5055567;28;20175;-69
2023/02/27 06:55:03;;;;;;;1999.90;999.90;;;-0.90;99.90;;;;;;5056460;28;20163;-68
2023/02/27 06:57:28;;;;;;;1999.90;999.90;;;-0.80;99.90;;;;;;5054153;28;20172;-70
2023/02/27 06:59:54;;;;;;;1999.90;999.90;;;-0.80;99.90;;;;;;5052993;28;20665;-70
2023/02/27 07:02:22;;;;;;;1999.90;999.90;;;-0.80;99.90;;;;;;5052904;28;20217;-70
2023/02/27 07:04:47;;;;;;;1999.90;999.90;;;-0.70;99.90;;;;;;5053153;28;20175;-70
2023/02/27 07:07:13;;;;;;;1999.90;999.90;;;-0.60;99.90;;;;;;5053042;28;20180;-70
2023/02/27 07:09:39;;;;;;;1999.90;999.90;;;-0.60;99.90;;;;;;5053618;28;20678;-70
2023/02/27 07:12:06;;;;;;;1999.90;999.90;;;-0.60;99.90;;;;;;5055892;28;20702;-69
2023/02/27 07:14:32;;;;;;;1999.90;999.90;;;-0.50;99.90;;;;;;5056146;28;20394;-69
2023/02/27 07:17:02;;;;;;;1999.90;999.90;;;-0.40;99.90;;;;;;5056013;28;20177;-69
2023/02/27 07:19:28;;;;;;;1999.90;999.90;;;-0.40;99.90;;;;;;5055463;28;20195;-69
2023/02/27 07:21:53;;;;;;;1999.90;999.90;;;-0.30;99.90;;;;;;5055570;28;20229;-69
2023/02/27 07:24:19;;;;;;;1999.90;999.90;;;-0.20;99.90;;;;;;5055902;28;20168;-69
2023/02/27 07:26:44;;;;;;;1999.90;999.90;;;-0.20;99.90;;;;;;5055427;28;20179;-69
2023/02/27 07:29:10;;;;;;;1999.90;999.90;;;-0.10;99.90;;;;;;5055714;28;20286;-69
2023/02/27 07:31:36;;;;;;;1999.90;999.90;;;0.00;99.90;;;;;;5055988;28;20168;-69
2023/02/27 07:34:02;;;;;;;1999.90;999.90;;;0.00;99.90;;;;;;5055838;28;20186;-69
2023/02/27 07:36:29;;;;;;;1999.90;999.90;;;0.10;99.90;;;;;;5055693;28;20172;-70
2023/02/27 07:38:56;;;;;;;1999.90;999.90;;;0.20;99.90;;;;;;5056130;28;20174;-70
2023/02/27 07:41:22;;;;;;;1999.90;999.90;;;0.20;99.90;;;;;;5055631;28;20686;-70
2023/02/27 07:43:48;;;;;;;1999.90;999.90;;;0.30;99.90;;;;;;5056133;28;20179;-70
2023/02/27 07:46:13;;;;;;;1999.90;999.90;;;0.40;99.90;;;;;;5056191;28;20172;-69
2023/02/27 07:48:39;;;;;;;1999.90;999.90;;;0.40;99.90;;;;;;5056352;28;20681;-69
2023/02/27 07:51:05;;;;;;;1999.90;999.90;;;0.50;99.90;;;;;;5054979;28;20187;-70
2023/02/27 07:53:31;;;;;;;1999.90;999.90;;;0.60;99.90;;;;;;5044110;28;20565;-70
2023/02/27 07:55:56;;;;;;;1999.90;999.90;;;0.60;99.90;;;;;;5046974;28;20467;-70
2023/02/27 07:58:22;;;;;;;1999.90;999.90;;;0.70;99.90;;;;;;5044536;28;20414;-70
2023/02/27 08:00:48;;;;;;;1999.90;999.90;;;0.80;99.90;;;;;;5052783;28;20202;-70
2023/02/27 08:03:13;;;;;;;1999.90;999.90;;;0.80;99.90;;;;;;5056047;28;20564;-70
2023/02/27 08:05:39;;;;;;;1999.90;999.90;;;0.90;99.90;;;;;;5058117;28;20641;-70
2023/02/27 08:08:04;;;;;;;1999.90;999.90;;;1.00;99.90;;;;;;5057781;28;20203;-70
2023/02/27 08:10:30;;;;;;;1999.90;999.90;;;1.10;99.90;;;;;;5057765;28;20203;-70
2023/02/27 08:12:56;;;;;;;1999.90;999.90;;;1.20;99.90;;;;;;5057452;28;20183;-70
2023/02/27 08:15:21;;;;;;;1999.90;999.90;;;1.30;99.90;;;;;;5057934;28;20221;-70
2023/02/27 08:17:47;;;;;;;1999.90;999.90;;;1.40;99.90;;;;;;5058067;28;20191;-70
2023/02/27 08:20:14;;;;;;;1999.90;999.90;;;1.40;99.90;;;;;;5057711;28;20196;-70
2023/02/27 08:22:40;;;;;;;1999.90;999.90;;;1.50;99.90;;;;;;5057436;28;20406;-70
2023/02/27 08:25:07;;;;;;;1999.90;999.90;;;1.50;99.90;;;;;;5057945;28;20182;-69
2023/02/27 08:27:33;;;;;;;1999.90;999.90;;;1.60;99.90;;;;;;5058005;28;20262;-70
2023/02/27 08:29:59;;;;;;;1999.90;999.90;;;1.70;99.90;;;;;;5054555;28;20211;-70
2023/02/27 08:32:26;;;;;;;1999.90;999.90;;;1.80;99.90;;;;;;5055743;28;20164;-70
2023/02/27 08:34:51;;;;;;;1999.90;999.90;;;1.80;99.90;;;;;;5055892;28;20168;-70
2023/02/27 08:37:17;;;;;;;1999.90;999.90;;;1.90;99.90;;;;;;5055829;28;20174;-70
2023/02/27 08:39:43;;;;;;;1999.90;999.90;;;1.90;99.90;;;;;;5055680;28;20262;-70
2023/02/27 08:42:08;;;;;;;1999.90;999.90;;;2.00;99.90;;;;;;5055424;28;20532;-70
2023/02/27 08:44:34;;;;;;;1999.90;999.90;;;2.10;99.90;;;;;;5055717;28;20167;-70
2023/02/27 08:47:00;;;;;;;1999.90;999.90;;;2.20;99.90;;;;;;5055578;28;20168;-70
2023/02/27 08:49:25;;;;;;;1999.90;999.90;;;2.20;99.90;;;;;;5055488;28;20206;-70
2023/02/27 08:51:52;;;;;;;1999.90;999.90;;;2.30;99.90;;;;;;5055325;28;20160;-70
2023/02/27 08:54:18;;;;;;;1999.90;999.90;;;2.40;99.90;;;;;;5055531;28;20551;-69
2023/02/27 08:56:44;;;;;;;1999.90;999.90;;;2.50;99.90;;;;;;5055381;28;20175;-69
2023/02/27 08:59:10;;;;;;;1999.90;999.90;;;2.60;99.90;;;;;;5055408;28;20191;-70
2023/02/27 09:01:35;;;;;;;1999.90;999.90;;;2.60;99.90;;;;;;5055228;28;20245;-70
2023/02/27 09:04:05;;;;;;;1999.90;999.90;;;2.70;99.90;;;;;;5055354;28;20497;-69
2023/02/27 09:06:32;;;;;;;1999.90;999.90;;;2.80;99.90;;;;;;5055405;28;20266;-70
2023/02/27 09:08:58;;;;;;;1999.90;999.90;;;2.60;99.90;;;;;;5054955;28;20206;-70
2023/02/27 09:11:24;;;;;;;1999.90;999.90;;;3.00;99.90;;;;;;5055098;28;20402;-70
2023/02/27 09:13:50;;;;;;;1999.90;999.90;;;3.00;99.90;;;;;;5055454;28;20405;-70
2023/02/27 09:16:17;;;;;;;1999.90;999.90;;;3.10;99.90;;;;;;5055056;28;20192;-70
2023/02/27 09:18:43;;;;;;;1999.90;999.90;;;3.20;99.90;;;;;;5055037;28;20182;-70
2023/02/27 09:21:09;;;;;;;1999.90;999.90;;;3.30;99.90;;;;;;5054914;28;20184;-70
2023/02/27 09:23:34;;;;;;;1999.90;999.90;;;3.40;99.90;;;;;;5054860;28;20410;-70
2023/02/27 09:26:00;;;;;;;1999.90;999.90;;;3.50;99.90;;;;;;5055019;28;20179;-70
2023/02/27 09:28:26;;;;;;;1999.90;999.90;;;3.60;99.90;;;;;;5054872;28;20271;-70
2023/02/27 09:30:51;;;;;;;1999.90;999.90;;;3.70;99.90;;;;;;5054640;28;20669;-70
2023/02/27 09:33:17;;;;;;;1999.90;999.90;;;3.70;99.90;;;;;;5055091;28;20168;-70
2023/02/27 09:35:43;;;;;;;1999.90;999.90;;;3.80;99.90;;;;;;5054741;28;20171;-70
2023/02/27 09:38:09;;;;;;;1999.90;999.90;;;3.80;99.90;;;;;;5054736;28;20246;-70
2023/02/27 09:40:39;;;;;;;1999.90;999.90;;;3.90;99.90;;;;;;5050465;28;20192;-71
2023/02/27 09:43:25;;;;;;;1999.90;999.90;;;3.90;99.90;;;;;;5034510;28;20395;-69
2023/02/27 09:45:54;;;;;;;1999.90;999.90;;;3.90;99.90;;;;;;5034869;28;20813;-69
2023/02/27 09:48:40;;;;;;;1999.90;999.90;;;3.90;99.90;;;;;;5034449;28;20442;-70
2023/02/27 09:51:06;;;;;;;1999.90;999.90;;;4.00;99.90;;;;;;5034459;28;20768;-69
2023/02/27 09:53:38;;;;;;;1999.90;999.90;;;4.00;99.90;;;;;;5034463;28;20794;-70
2023/02/27 09:56:19;;;;;;;1999.90;999.90;;;4.00;99.90;;;;;;5034320;28;20413;-70
2023/02/27 09:59:06;;;;;;;1999.90;999.90;;;4.10;99.90;;;;;;5034241;28;20494;-70
2023/02/27 10:01:47;;;;;;;1999.90;999.90;;;4.20;99.90;;;;;;5034052;28;21058;-70
2023/02/27 10:04:30;;;;;;;1999.90;999.90;;;4.10;99.90;;;;;;5034221;28;20449;-70
2023/02/27 10:07:19;;;;;;;1999.90;999.90;;;4.20;99.90;;;;;;5034154;28;20453;-69
2023/02/27 10:10:00;;;;;;;1999.90;999.90;;;4.40;99.90;;;;;;5033891;28;20455;-70
2023/02/27 10:12:57;;;;;;;1999.90;999.90;;;4.40;99.90;;;;;;5033962;28;20836;-70
2023/02/27 10:15:33;;;;;;;1999.90;999.90;;;4.50;99.90;;;;;;4987765;28;20419;-69
2023/02/27 10:18:06;;;;;;;1999.90;999.90;;;4.70;99.90;;;;;;5033278;28;20425;-69
2023/02/27 10:20:39;;;;;;;1999.90;999.90;;;4.80;99.90;;;;;;5033709;28;20410;-69
2023/02/27 10:23:19;;;;;;;1999.90;999.90;;;4.90;99.90;;;;;;5034150;28;20889;-69
2023/02/27 10:25:48;;;;;;;1999.90;999.90;;;5.00;99.90;;;;;;5030860;28;20457;-71
2023/02/27 10:28:16;;;;;;;1999.90;999.90;;;4.90;99.90;;;;;;5035080;28;20970;-71
2023/02/27 10:30:55;;;;;;;1999.90;999.90;;;5.00;99.90;;;;;;5053417;28;20497;-70
2023/02/27 10:33:37;;;;;;;1999.90;999.90;;;5.10;99.90;;;;;;5052237;28;20471;-69
2023/02/27 10:36:09;;;;;;;1999.90;999.90;;;5.20;99.90;;;;;;5053435;28;20876;-72
2023/02/27 10:38:46;;;;;;;1999.90;999.90;;;5.10;99.90;;;;;;5052977;28;20406;-72
2023/02/27 10:41:15;;;;;;;1999.90;999.90;;;5.30;99.90;;;;;;5052587;28;20489;-72
2023/02/27 10:43:41;;;;;;;1999.90;999.90;;;5.60;99.90;;;;;;5053026;28;20904;-72
2023/02/27 10:46:22;;;;;;;1999.90;999.90;;;5.80;99.90;;;;;;5052788;28;20416;-72
2023/02/27 10:48:48;;;;;;;1999.90;999.90;;;5.90;99.90;;;;;;5052273;28;20442;-72
2023/02/27 10:51:27;;;;;;;1999.90;999.90;;;6.00;99.90;;;;;;5052419;28;20405;-72
2023/02/27 10:54:17;;;;;;;1999.90;999.90;;;6.10;99.90;;;;;;5052043;28;20435;-72
2023/02/27 10:56:47;;;;;;;1999.90;999.90;;;6.10;99.90;;;;;;5052578;28;21022;-72
2023/02/27 10:59:32;;;;;;;1999.90;999.90;;;6.30;99.90;;;;;;5052459;28;20423;-72
2023/02/27 11:01:59;;;;;;;1999.90;999.90;;;6.50;99.90;;;;;;5052211;28;20858;-68
2023/02/27 11:04:29;;;;;;;1999.90;999.90;;;6.60;99.90;;;;;;5051878;28;20410;-69
2023/02/27 11:06:55;;;;;;;1999.90;999.90;;;6.70;99.90;;;;;;5052471;28;20410;-69
2023/02/27 11:09:26;;;;;;;1999.90;999.90;;;6.80;99.90;;;;;;5051717;28;20458;-69
2023/02/27 11:11:53;;;;;;;1999.90;999.90;;;6.80;99.90;;;;;;5052155;28;20398;-68
2023/02/27 11:14:29;;;;;;;1999.90;999.90;;;6.90;99.90;;;;;;5052546;28;20398;-69
2023/02/27 11:17:02;;;;;;;1999.90;999.90;;;7.00;99.90;;;;;;5051730;28;20445;-70
2023/02/27 11:19:36;;;;;;;1999.90;999.90;;;7.20;99.90;;;;;;5052206;28;20422;-70
2023/02/27 11:22:12;;;;;;;1999.90;999.90;;;7.20;99.90;;;;;;5052073;28;20891;-70
2023/02/27 11:24:38;;;;;;;1999.90;999.90;;;7.40;99.90;;;;;;5051676;28;21085;-71
2023/02/27 11:27:25;;;;;;;1999.90;999.90;;;7.50;99.90;;;;;;5052119;28;20493;-71
2023/02/27 11:30:03;;;;;;;1999.90;999.90;;;7.60;99.90;;;;;;5052597;28;20218;-73
2023/02/27 11:32:44;;;;;;;1999.90;999.90;;;7.60;99.60;;;;;;5051717;28;20402;-73
2023/02/27 11:35:25;;;;;;;1999.90;999.90;;;7.60;99.00;;;;;;5052609;28;20410;-73
2023/02/27 11:37:57;;;;;;;1999.90;999.90;;;7.70;99.90;;;;;;5053257;28;20438;-73
2023/02/27 11:40:29;;;;;;;1999.90;999.90;;;7.80;99.90;;;;;;5051969;28;20422;-70
2023/02/27 11:42:59;;;;;;;1999.90;999.90;;;8.00;99.90;;;;;;5051808;28;20403;-70
2023/02/27 11:45:36;;;;;;;1999.90;999.90;;;8.30;99.00;;;;;;5053793;28;20413;-75
2023/02/27 11:48:24;;;;;;;1999.90;999.90;;;8.70;95.50;;;;;;5057825;28;20394;-71
2023/02/27 11:50:58;;;;;;;1999.90;999.90;;;9.10;84.00;;;;;;5051624;28;20417;-70
2023/02/27 11:53:30;;;;;;;1999.90;999.90;;;9.60;76.80;;;;;;5051231;28;20618;-70
2023/02/27 11:55:59;;;;;;;1999.90;999.90;;;10.30;67.40;;;;;;5051678;28;20413;-72
2023/02/27 11:58:28;;;;;;;1999.90;999.90;;;10.80;51.90;;;;;;5051804;28;20404;-72
2023/02/27 12:01:02;;;;;;;1999.90;999.90;;;11.00;52.40;;;;;;5049816;28;20455;-72
2023/02/27 12:03:54;;;;;;;1999.90;999.90;;;11.70;44.30;;;;;;5051527;28;20406;-71
2023/02/27 12:06:30;;;;;;;1999.90;999.90;;;12.20;38.30;;;;;;5051568;28;20408;-73
2023/02/27 12:09:05;;;;;;;1999.90;999.90;;;12.40;27.60;;;;;;5050996;28;20951;-73
2023/02/27 12:11:40;;;;;;;1999.90;999.90;;;13.00;26.30;;;;;;5051347;28;20461;-72
2023/02/27 12:14:32;;;;;;;1999.90;999.90;;;13.50;25.10;;;;;;5051585;28;20392;-70
2023/02/27 12:17:50;;;;;;;1999.90;999.90;;;13.90;21.00;;;;;;5037596;28;20469;-71
2023/02/27 12:20:37;;;;;;;1999.90;999.90;;;14.40;19.40;;;;;;5010234;28;20430;-71
2023/02/27 12:23:14;;;;;;;1999.90;999.90;;;14.70;16.40;;;;;;5050514;28;20433;-70
2023/02/27 12:26:00;;;;;;;1999.90;999.90;;;15.00;17.10;;;;;;5051404;28;20810;-71
2023/02/27 12:28:46;;;;;;;1999.90;999.90;;;15.10;17.50;;;;;;5051167;28;20461;-72
2023/02/27 12:31:37;;;;;;;1999.90;999.90;;;15.10;15.20;;;;;;5050748;28;20903;-72